Time;durP1;ratioP1;P1;durP2;ratioP2;P2;SDS_P1;SDS_P2;PMS_P1;PMS_P2;Temp;Humidity;BMP_temperature;BMP_pressure;BME280_temperature;BME280_humidity;BME280_pressure;Samples;Min_cycle;Max_cycle;Signal;HPM_P1;HPM_P2
2023/01/27 00:01:06;;;;;;;;;;;;;;;-0.38;78.28;98175.41;4911849;29;19927;-57
2023/01/27 00:03:34;;;;;;;;;;;;;;;-0.36;78.35;98189.34;4911741;29;20368;-57
2023/01/27 00:06:03;;;;;;;;;;;;;;;-0.35;78.51;98190.97;4900090;29;19979;-57
2023/01/27 00:08:31;;;;;;;;;;;;;;;-0.41;78.54;98187.38;4905765;29;19930;-58
2023/01/27 00:13:42;;;;;;;;;;;;;;;-0.46;78.06;98181.91;4912537;29;20013;-57
2023/01/27 00:16:11;;;;;;;;;;;;;;;-0.43;77.47;98177.97;4916459;29;19928;-57
2023/01/27 00:18:39;;;;;;;;;;;;;;;-0.41;77.36;98173.22;4914674;29;20280;-57
2023/01/27 00:26:39;;;;;;;;;;;;;;;-0.47;77.48;98169.63;4909145;29;19927;-57
2023/01/27 00:29:11;;;;;;;;;;;;;;;-0.56;78.09;98160.34;4902627;29;21221;-57
2023/01/27 00:34:25;;;;;;;;;;;;;;;-0.68;78.93;98171.03;4919050;29;19927;-57
2023/01/27 00:36:53;;;;;;;;;;;;;;;-0.66;79.03;98168.94;4916851;29;20404;-57
2023/01/27 00:39:21;;;;;;;;;;;;;;;-0.74;78.80;98163.16;4923777;29;19930;-57
2023/01/27 00:41:49;;;;;;;;;;;;;;;-0.64;78.87;98171.34;4916023;29;19927;-57
2023/01/27 00:44:19;;;;;;;;;;;;;;;-0.68;79.03;98180.91;4915588;29;19923;-58
2023/01/27 00:46:47;;;;;;;;;;;;;;;-0.71;79.44;98171.47;4915844;29;19923;-57
2023/01/27 00:49:18;;;;;;;;;;;;;;;-0.61;78.80;98177.06;4918678;29;20377;-58
2023/01/27 00:51:46;;;;;;;;;;;;;;;-0.53;78.36;98175.91;4902753;29;19934;-57
2023/01/27 00:54:15;;;;;;;;;;;;;;;-0.69;78.85;98169.41;4912524;29;19929;-57
2023/01/27 00:56:46;;;;;;;;;;;;;;;-0.58;78.14;98170.44;4915066;29;19954;-57
2023/01/27 00:59:14;;;;;;;;;;;;;;;-0.51;78.17;98167.66;4916998;29;19931;-57
2023/01/27 01:01:43;;;;;;;;;;;;;;;-0.50;78.22;98166.59;4915281;29;19928;-57
2023/01/27 01:04:11;;;;;;;;;;;;;;;-0.42;77.65;98174.28;4908474;29;19927;-57
2023/01/27 01:06:39;;;;;;;;;;;;;;;-0.68;77.85;98183.56;4915826;29;19930;-57
2023/01/27 01:09:08;;;;;;;;;;;;;;;-0.86;78.75;98181.78;4917354;29;19987;-57
2023/01/27 01:11:35;;;;;;;;;;;;;;;-0.81;78.86;98182.72;4901379;29;19927;-58
2023/01/27 01:14:04;;;;;;;;;;;;;;;-0.83;79.08;98189.34;4898949;29;20360;-57
2023/01/27 01:16:32;;;;;;;;;;;;;;;-0.73;78.34;98191.44;4898060;29;20402;-57
2023/01/27 01:19:04;;;;;;;;;;;;;;;-0.82;78.73;98181.09;4907167;29;20372;-57
2023/01/27 01:21:32;;;;;;;;;;;;;;;-0.67;78.50;98177.97;4913914;29;19923;-57
2023/01/27 01:24:00;;;;;;;;;;;;;;;-0.69;78.42;98185.41;4913117;29;19930;-57
2023/01/27 01:26:29;;;;;;;;;;;;;;;-0.64;77.91;98176.69;4914580;29;20018;-57
2023/01/27 01:28:57;;;;;;;;;;;;;;;-0.56;77.89;98182.50;4918543;29;19923;-57
2023/01/27 01:31:27;;;;;;;;;;;;;;;-0.58;77.80;98179.25;4897885;29;19933;-57
2023/01/27 01:33:55;;;;;;;;;;;;;;;-0.58;77.94;98176.59;4915649;29;19929;-57
2023/01/27 01:36:48;;;;;;;;;;;;;;;-0.67;78.40;98187.84;4906105;29;19924;-57
2023/01/27 01:39:21;;;;;;;;;;;;;;;-0.88;78.37;98186.56;4911978;29;20332;-57
2023/01/27 01:41:50;;;;;;;;;;;;;;;-0.77;79.08;98182.28;4898530;29;19927;-57
2023/01/27 01:44:19;;;;;;;;;;;;;;;-0.63;78.70;98173.81;4910864;29;19923;-57
2023/01/27 01:46:47;;;;;;;;;;;;;;;-0.66;78.56;98184.94;4915693;29;19982;-57
2023/01/27 01:49:19;;;;;;;;;;;;;;;-0.70;78.28;98191.78;4914369;29;19959;-57
2023/01/27 01:52:13;;;;;;;;;;;;;;;-0.72;78.30;98183.19;4912863;29;19934;-57
2023/01/27 01:54:44;;;;;;;;;;;;;;;-0.78;78.39;98176.13;4914583;29;19986;-57
2023/01/27 01:57:13;;;;;;;;;;;;;;;-0.81;78.31;98171.25;4916993;29;19931;-57
2023/01/27 01:59:43;;;;;;;;;;;;;;;-0.71;78.05;98181.34;4922800;29;19927;-58
2023/01/27 02:02:11;;;;;;;;;;;;;;;-0.72;77.98;98177.06;4915828;29;20009;-57
2023/01/27 02:04:40;;;;;;;;;;;;;;;-0.87;78.26;98180.19;4919429;29;20292;-58
2023/01/27 02:07:09;;;;;;;;;;;;;;;-0.97;79.19;98177.25;4921143;29;19927;-57
2023/01/27 02:10:04;;;;;;;;;;;;;;;-0.89;78.57;98176.94;4907637;29;19930;-60
2023/01/27 02:12:35;;;;;;;;;;;;;;;-0.85;78.59;98180.78;4899171;29;20277;-57
2023/01/27 02:15:07;;;;;;;;;;;;;;;-0.90;78.55;98175.31;4897728;29;20040;-57
2023/01/27 02:17:35;;;;;;;;;;;;;;;-0.88;78.57;98166.03;4902531;29;20278;-57
2023/01/27 02:20:05;;;;;;;;;;;;;;;-0.83;78.80;98181.34;4916419;29;20352;-58
2023/01/27 02:22:36;;;;;;;;;;;;;;;-0.73;78.43;98184.25;4913640;29;19923;-57
2023/01/27 02:25:06;;;;;;;;;;;;;;;-0.89;78.62;98176.94;4898280;29;19930;-57
2023/01/27 02:27:36;;;;;;;;;;;;;;;-0.92;79.08;98172.06;4897201;29;19923;-57
2023/01/27 02:30:04;;;;;;;;;;;;;;;-0.84;79.17;98171.72;4909539;29;19923;-57
2023/01/27 02:32:33;;;;;;;;;;;;;;;-0.75;78.85;98175.66;4914408;29;19923;-57
2023/01/27 02:35:02;;;;;;;;;;;;;;;-0.81;78.66;98187.25;4914642;29;19923;-57
2023/01/27 02:37:30;;;;;;;;;;;;;;;-0.92;79.27;98178.19;4897061;29;20423;-57
2023/01/27 02:39:59;;;;;;;;;;;;;;;-0.74;79.14;98177.28;4897540;29;19923;-57
2023/01/27 02:42:27;;;;;;;;;;;;;;;-0.86;78.92;98182.59;4912946;29;19927;-57
2023/01/27 02:44:57;;;;;;;;;;;;;;;-0.84;79.05;98171.72;4896018;29;19962;-57
2023/01/27 02:47:25;;;;;;;;;;;;;;;-0.85;78.83;98168.25;4913741;29;19930;-57
2023/01/27 02:49:54;;;;;;;;;;;;;;;-0.87;78.62;98172.97;4894538;29;19929;-57
2023/01/27 02:52:22;;;;;;;;;;;;;;;-0.80;79.11;98172.88;4911302;29;19979;-57
2023/01/27 02:54:53;;;;;;;;;;;;;;;-0.85;78.97;98175.44;4914357;29;20022;-57
2023/01/27 02:57:21;;;;;;;;;;;;;;;-0.66;78.40;98173.44;4908093;29;19930;-57
2023/01/27 03:00:04;;;;;;;;;;;;;;;-0.88;79.05;98178.56;4895969;29;20324;-57
2023/01/27 03:02:33;;;;;;;;;;;;;;;-0.91;78.21;98182.47;4906959;29;19923;-57
2023/01/27 03:05:02;;;;;;;;;;;;;;;-0.86;78.44;98181.78;4912691;29;20292;-57
2023/01/27 03:07:30;;;;;;;;;;;;;;;-0.89;78.60;98185.75;4896608;29;19923;-57
2023/01/27 03:09:58;;;;;;;;;;;;;;;-0.92;78.72;98186.19;4911741;29;19923;-57
2023/01/27 03:18:33;;;;;;;;;;;;;;;-0.91;77.89;98177.16;4908474;29;20067;-57
2023/01/27 03:21:02;;;;;;;;;;;;;;;-0.89;78.17;98177.75;4923263;29;19950;-57
2023/01/27 03:23:33;;;;;;;;;;;;;;;-0.81;77.86;98173.91;4913490;29;19924;-57
2023/01/27 03:26:03;;;;;;;;;;;;;;;-0.94;77.51;98171.47;4915382;29;19930;-56
2023/01/27 03:28:31;;;;;;;;;;;;;;;-0.83;77.70;98170.69;4916433;29;19931;-57
2023/01/27 03:34:02;;;;;;;;;;;;;;;-0.81;78.39;98163.25;4896228;29;20373;-57
2023/01/27 03:48:09;;;;;;;;;;;;;;;-0.79;76.83;98174.50;4917150;29;20082;-57
2023/01/27 03:51:00;;;;;;;;;;;;;;;-0.83;77.18;98184.00;4924735;29;20480;-57
2023/01/27 03:53:29;;;;;;;;;;;;;;;-0.78;76.36;98178.78;4917146;29;19927;-57
2023/01/27 03:56:22;;;;;;;;;;;;;;;-0.82;77.01;98181.09;4918094;29;19927;-57
2023/01/27 03:58:50;;;;;;;;;;;;;;;-0.78;75.49;98176.13;4917714;29;19923;-57
2023/01/27 04:01:19;;;;;;;;;;;;;;;-0.88;76.32;98178.56;4916232;29;20025;-57
2023/01/27 04:06:56;;;;;;;;;;;;;;;-0.60;75.35;98177.84;4913229;29;19927;-57
2023/01/27 04:09:25;;;;;;;;;;;;;;;-0.64;75.07;98174.03;4916828;29;19922;-57
2023/01/27 04:11:54;;;;;;;;;;;;;;;-0.46;75.02;98157.09;4917479;29;20371;-57
2023/01/27 04:14:25;;;;;;;;;;;;;;;-0.50;74.45;98164.75;4917875;29;19930;-57
2023/01/27 04:16:54;;;;;;;;;;;;;;;-0.49;74.51;98181.56;4915138;29;20276;-57
2023/01/27 04:19:24;;;;;;;;;;;;;;;-0.58;74.97;98176.59;4915321;29;19930;-57
2023/01/27 04:21:52;;;;;;;;;;;;;;;-0.64;74.90;98176.69;4916121;29;19923;-57
2023/01/27 04:24:45;;;;;;;;;;;;;;;-0.71;74.81;98165.34;4909418;29;20404;-58
2023/01/27 04:27:14;;;;;;;;;;;;;;;-0.80;74.92;98176.38;4898233;29;19963;-57
2023/01/27 04:30:07;;;;;;;;;;;;;;;-0.81;75.44;98176.56;4917121;29;20268;-57
2023/01/27 04:32:38;;;;;;;;;;;;;;;-0.88;75.95;98191.88;4914782;29;19923;-57
2023/01/27 04:35:08;;;;;;;;;;;;;;;-0.87;76.05;98193.50;4917370;29;19931;-57
2023/01/27 04:37:36;;;;;;;;;;;;;;;-0.70;75.55;98189.09;4914031;29;19934;-57
2023/01/27 04:40:05;;;;;;;;;;;;;;;-0.82;75.56;98197.09;4914967;29;19923;-57
2023/01/27 04:42:33;;;;;;;;;;;;;;;-0.85;75.73;98202.13;4916142;29;19975;-57
2023/01/27 04:45:01;;;;;;;;;;;;;;;-0.85;75.55;98202.13;4914629;29;19923;-57
2023/01/27 04:47:29;;;;;;;;;;;;;;;-0.96;75.01;98205.56;4912076;29;19955;-57
2023/01/27 04:49:58;;;;;;;;;;;;;;;-1.06;75.65;98179.47;4915745;29;20261;-57
2023/01/27 04:52:27;;;;;;;;;;;;;;;-0.93;75.84;98176.56;4917766;29;19994;-57
2023/01/27 04:54:55;;;;;;;;;;;;;;;-0.84;75.86;98190.41;4902587;29;20395;-58
2023/01/27 04:57:24;;;;;;;;;;;;;;;-0.90;75.53;98191.31;4921889;29;19962;-57
2023/01/27 04:59:52;;;;;;;;;;;;;;;-0.97;75.60;98187.94;4916547;29;19983;-57
2023/01/27 05:02:20;;;;;;;;;;;;;;;-0.93;75.88;98191.78;4917138;29;19923;-57
2023/01/27 05:04:48;;;;;;;;;;;;;;;-0.82;75.72;98185.63;4905790;29;19923;-57
2023/01/27 05:07:42;;;;;;;;;;;;;;;-0.80;75.35;98178.19;4917247;29;19946;-57
2023/01/27 05:10:12;;;;;;;;;;;;;;;-0.74;75.13;98187.16;4903365;29;19931;-57
2023/01/27 05:12:39;;;;;;;;;;;;;;;-0.91;75.29;98187.81;4898344;29;19927;-57
2023/01/27 05:15:08;;;;;;;;;;;;;;;-0.71;74.89;98195.50;4899809;29;19923;-57
2023/01/27 05:17:38;;;;;;;;;;;;;;;-0.96;74.99;98184.22;4916294;29;20382;-58
2023/01/27 05:20:06;;;;;;;;;;;;;;;-0.97;75.70;98182.59;4916372;29;20383;-57
2023/01/27 05:22:35;;;;;;;;;;;;;;;-0.78;75.02;98188.66;4916787;29;20349;-57
2023/01/27 05:25:03;;;;;;;;;;;;;;;-0.71;74.72;98189.34;4916821;29;19987;-57
2023/01/27 05:27:32;;;;;;;;;;;;;;;-0.84;74.54;98193.88;4915575;29;19930;-57
2023/01/27 05:30:00;;;;;;;;;;;;;;;-0.84;74.75;98196.53;4920894;29;20036;-57
2023/01/27 05:32:28;;;;;;;;;;;;;;;-0.72;74.57;98201.06;4922855;29;20428;-58
2023/01/27 05:34:56;;;;;;;;;;;;;;;-0.81;74.57;98205.91;4908934;29;19922;-58
2023/01/27 05:37:25;;;;;;;;;;;;;;;-0.95;74.97;98202.69;4915041;29;19927;-57
2023/01/27 05:39:54;;;;;;;;;;;;;;;-0.89;74.74;98214.28;4916219;29;19934;-57
2023/01/27 05:42:22;;;;;;;;;;;;;;;-0.84;74.44;98225.06;4898509;29;19971;-57
2023/01/27 05:44:51;;;;;;;;;;;;;;;-0.89;74.35;98232.94;4921521;29;19955;-57
2023/01/27 05:47:19;;;;;;;;;;;;;;;-0.93;73.54;98234.44;4915821;29;20419;-57
2023/01/27 05:49:47;;;;;;;;;;;;;;;-1.04;73.94;98221.91;4915288;29;19930;-57
2023/01/27 05:52:15;;;;;;;;;;;;;;;-0.93;73.77;98226.44;4899047;29;19930;-57
2023/01/27 05:54:43;;;;;;;;;;;;;;;-0.93;73.38;98223.78;4916600;29;19927;-57
2023/01/27 05:57:11;;;;;;;;;;;;;;;-0.97;73.77;98235.94;4914579;29;19927;-57
2023/01/27 05:59:39;;;;;;;;;;;;;;;-1.12;73.91;98233.69;4921203;29;19930;-57
2023/01/27 06:02:10;;;;;;;;;;;;;;;-0.97;74.57;98230.59;4915390;29;19923;-57
2023/01/27 06:04:38;;;;;;;;;;;;;;;-0.89;74.79;98228.44;4911092;29;19945;-57
2023/01/27 06:07:07;;;;;;;;;;;;;;;-0.68;73.90;98235.06;4915535;29;19923;-57
2023/01/27 06:10:00;;;;;;;;;;;;;;;-0.77;72.80;98236.44;4924237;29;19929;-57
2023/01/27 06:12:34;;;;;;;;;;;;;;;-0.70;72.89;98231.78;4919691;29;19927;-59
2023/01/27 06:15:02;;;;;;;;;;;;;;;-0.72;73.22;98246.41;4918204;29;19977;-57
2023/01/27 06:17:33;;;;;;;;;;;;;;;-0.64;72.38;98252.25;4896128;29;19930;-57
2023/01/27 06:20:01;;;;;;;;;;;;;;;-0.77;72.52;98249.78;4913459;29;19927;-57
2023/01/27 06:22:29;;;;;;;;;;;;;;;-0.77;72.47;98247.09;4909248;29;19923;-57
2023/01/27 06:24:57;;;;;;;;;;;;;;;-0.90;72.94;98263.34;4912853;29;19950;-57
2023/01/27 06:27:26;;;;;;;;;;;;;;;-0.87;73.29;98262.84;4912919;29;19952;-57
2023/01/27 06:29:53;;;;;;;;;;;;;;;-0.67;72.94;98263.38;4915451;29;20384;-57
2023/01/27 06:32:28;;;;;;;;;;;;;;;-0.89;73.24;98270.28;4899751;29;19923;-57
2023/01/27 06:34:57;;;;;;;;;;;;;;;-1.00;74.04;98274.56;4912013;29;19927;-57
2023/01/27 06:37:28;;;;;;;;;;;;;;;-0.89;73.80;98283.63;4911378;29;20261;-57
2023/01/27 06:39:57;;;;;;;;;;;;;;;-0.71;72.99;98270.19;4912352;29;19951;-58
2023/01/27 06:42:25;;;;;;;;;;;;;;;-0.66;72.12;98270.31;4914268;29;19927;-57
2023/01/27 06:44:53;;;;;;;;;;;;;;;-0.87;73.00;98274.34;4914065;29;20454;-57
2023/01/27 06:47:21;;;;;;;;;;;;;;;-0.66;73.12;98278.31;4912410;29;19954;-64
2023/01/27 06:49:49;;;;;;;;;;;;;;;-0.90;72.89;98279.34;4898233;29;19923;-57
2023/01/27 06:52:19;;;;;;;;;;;;;;;-0.68;72.38;98282.28;4913513;29;20249;-56
2023/01/27 06:54:47;;;;;;;;;;;;;;;-0.80;71.93;98284.91;4913334;29;19945;-57
2023/01/27 06:57:15;;;;;;;;;;;;;;;-0.81;71.56;98293.94;4897764;29;19923;-58
2023/01/27 06:59:46;;;;;;;;;;;;;;;-0.92;72.08;98286.72;4911642;29;19966;-57
2023/01/27 07:02:14;;;;;;;;;;;;;;;-0.73;72.26;98277.63;4910062;29;19923;-57
2023/01/27 07:04:42;;;;;;;;;;;;;;;-0.65;72.16;98277.28;4911025;29;19931;-57
2023/01/27 07:07:35;;;;;;;;;;;;;;;-0.50;71.95;98276.03;4912240;29;19923;-57
2023/01/27 07:10:06;;;;;;;;;;;;;;;-0.58;71.53;98278.00;4909030;29;19974;-57
2023/01/27 07:12:36;;;;;;;;;;;;;;;-0.78;72.21;98285.50;4910415;29;20280;-57
2023/01/27 07:15:04;;;;;;;;;;;;;;;-0.74;71.77;98275.19;4904069;29;19930;-58
2023/01/27 07:17:32;;;;;;;;;;;;;;;-0.63;71.47;98280.53;4910941;29;19923;-58
2023/01/27 07:20:00;;;;;;;;;;;;;;;-0.54;71.19;98279.16;4898663;29;19923;-57
2023/01/27 07:22:28;;;;;;;;;;;;;;;-0.40;70.94;98284.28;4913950;29;19928;-56
2023/01/27 07:24:56;;;;;;;;;;;;;;;-0.48;70.82;98297.94;4916556;29;19934;-57
2023/01/27 07:27:25;;;;;;;;;;;;;;;-0.36;70.99;98296.13;4915749;29;19963;-58
2023/01/27 07:32:46;;;;;;;;;;;;;;;-0.54;70.49;98295.16;4918748;29;19927;-57
2023/01/27 07:35:15;;;;;;;;;;;;;;;-0.64;70.94;98299.44;4928052;29;19927;-58
2023/01/27 07:37:43;;;;;;;;;;;;;;;-0.48;70.84;98300.63;4920409;29;19931;-57
2023/01/27 07:40:13;;;;;;;;;;;;;;;-0.46;70.35;98307.38;4921095;29;19931;-57
2023/01/27 07:42:43;;;;;;;;;;;;;;;-0.32;70.68;98302.59;4909037;29;20275;-58
2023/01/27 07:45:11;;;;;;;;;;;;;;;-0.40;70.86;98303.78;4909901;29;20017;-57
2023/01/27 07:47:39;;;;;;;;;;;;;;;-0.49;70.71;98315.81;4914767;29;19927;-57
2023/01/27 07:50:08;;;;;;;;;;;;;;;-0.49;70.49;98312.34;4913680;29;19927;-57
2023/01/27 07:52:37;;;;;;;;;;;;;;;-0.48;70.45;98313.97;4915812;29;19947;-57
2023/01/27 07:55:05;;;;;;;;;;;;;;;-0.43;70.33;98322.91;4925564;29;19927;-58
2023/01/27 07:57:33;;;;;;;;;;;;;;;-0.52;69.92;98331.50;4922328;29;19926;-57
2023/01/27 08:00:04;;;;;;;;;;;;;;;-0.39;70.29;98323.28;4920030;29;19975;-58
2023/01/27 08:03:04;;;;;;;;;;;;;;;-0.50;69.82;98332.88;4921917;29;19934;-57
2023/01/27 08:05:33;;;;;;;;;;;;;;;-0.40;69.91;98327.00;4917430;29;19973;-57
2023/01/27 08:08:03;;;;;;;;;;;;;;;-0.37;69.31;98342.56;4917312;29;19927;-57
2023/01/27 08:10:32;;;;;;;;;;;;;;;-0.52;69.76;98342.19;4917720;29;19991;-57
2023/01/27 08:13:00;;;;;;;;;;;;;;;-0.61;70.49;98341.69;4927835;29;19950;-57
2023/01/27 08:15:31;;;;;;;;;;;;;;;-0.43;69.82;98340.78;4899041;29;19945;-57
2023/01/27 08:18:01;;;;;;;;;;;;;;;-0.54;69.68;98337.84;4917639;29;19984;-57
2023/01/27 08:20:32;;;;;;;;;;;;;;;-0.46;70.26;98327.91;4917396;29;19946;-57
2023/01/27 08:23:04;;;;;;;;;;;;;;;-0.44;70.08;98325.81;4903554;29;19979;-58
2023/01/27 08:25:32;;;;;;;;;;;;;;;-0.23;68.91;98309.22;4921250;29;19935;-56
2023/01/27 08:28:00;;;;;;;;;;;;;;;-0.34;69.51;98305.50;4914645;29;19931;-57
2023/01/27 08:30:53;;;;;;;;;;;;;;;-0.35;69.96;98306.56;4912818;29;19927;-56
2023/01/27 08:36:20;;;;;;;;;;;;;;;-0.02;68.95;98311.31;4915222;29;19927;-57
2023/01/27 08:38:49;;;;;;;;;;;;;;;0.09;68.73;98322.25;4909429;29;19937;-58
2023/01/27 08:41:17;;;;;;;;;;;;;;;-0.15;68.76;98319.59;4916776;29;19927;-57
2023/01/27 08:43:45;;;;;;;;;;;;;;;-0.07;69.80;98323.75;4915014;29;20274;-58
2023/01/27 08:46:13;;;;;;;;;;;;;;;0.06;68.83;98333.41;4917138;29;19927;-57
2023/01/27 08:48:43;;;;;;;;;;;;;;;0.11;69.37;98330.84;4915115;29;19938;-57
2023/01/27 08:51:11;;;;;;;;;;;;;;;0.27;68.89;98335.47;4919257;29;19928;-57
2023/01/27 08:53:42;;;;;;;;;;;;;;;0.12;68.71;98325.25;4919545;29;19961;-57
2023/01/27 08:56:11;;;;;;;;;;;;;;;0.18;68.65;98324.31;4916089;29;19927;-57
2023/01/27 08:58:39;;;;;;;;;;;;;;;0.02;68.67;98335.72;4913575;29;20274;-57
2023/01/27 09:01:07;;;;;;;;;;;;;;;0.07;68.92;98330.50;4917292;29;20385;-58
2023/01/27 09:03:38;;;;;;;;;;;;;;;0.13;69.72;98334.91;4919959;29;19928;-57
2023/01/27 09:06:09;;;;;;;;;;;;;;;0.30;68.01;98323.50;4917590;29;19998;-58
2023/01/27 09:08:37;;;;;;;;;;;;;;;0.33;67.70;98328.38;4912801;29;20185;-58
2023/01/27 09:11:09;;;;;;;;;;;;;;;0.22;67.72;98332.69;4917032;29;20382;-57
2023/01/27 09:13:38;;;;;;;;;;;;;;;0.08;68.21;98332.13;4917584;29;20296;-58
2023/01/27 09:16:09;;;;;;;;;;;;;;;0.26;68.71;98325.81;4917954;29;20343;-58
2023/01/27 09:18:37;;;;;;;;;;;;;;;0.36;68.93;98331.38;4898433;29;19931;-57
2023/01/27 09:21:30;;;;;;;;;;;;;;;0.21;68.50;98339.91;4907907;29;19966;-57
2023/01/27 09:23:58;;;;;;;;;;;;;;;-0.01;68.96;98336.97;4926998;29;19930;-57
2023/01/27 09:26:27;;;;;;;;;;;;;;;0.18;68.50;98336.88;4914525;29;20009;-58
2023/01/27 09:28:56;;;;;;;;;;;;;;;-0.01;68.51;98342.31;4916531;29;19970;-57
2023/01/27 09:31:25;;;;;;;;;;;;;;;-0.02;68.43;98346.03;4908009;29;19924;-58
2023/01/27 09:33:53;;;;;;;;;;;;;;;-0.09;68.89;98350.69;4892460;29;19935;-58
2023/01/27 09:36:22;;;;;;;;;;;;;;;-0.04;69.03;98356.16;4912860;29;19923;-58
2023/01/27 09:38:54;;;;;;;;;;;;;;;0.09;69.24;98356.97;4911376;29;20347;-58
2023/01/27 09:41:36;;;;;;;;;;;;;;;0.20;68.51;98354.28;4908467;29;19987;-58
2023/01/27 09:44:22;;;;;;;;;;;;;;;0.01;68.45;98363.47;4912924;29;19926;-57
2023/01/27 09:46:59;;;;;;;;;;;;;;;0.35;68.23;98366.38;4911985;29;20018;-58
2023/01/27 09:49:53;;;;;;;;;;;;;;;0.48;67.82;98356.25;4912739;29;19923;-57
2023/01/27 09:52:26;;;;;;;;;;;;;;;0.71;66.91;98359.91;4911812;29;19987;-57
2023/01/27 09:55:39;;;;;;;;;;;;;;;0.81;66.32;98365.47;4912717;29;20399;-58
2023/01/27 09:58:09;;;;;;;;;;;;;;;0.85;66.37;98363.13;4910840;29;19947;-57
2023/01/27 10:00:41;;;;;;;;;;;;;;;0.73;65.82;98368.50;4907644;29;19969;-57
2023/01/27 10:03:23;;;;;;;;;;;;;;;0.40;66.05;98369.97;4896645;29;20384;-58
2023/01/27 10:06:01;;;;;;;;;;;;;;;0.34;66.19;98370.09;4913953;29;19997;-57
2023/01/27 10:08:39;;;;;;;;;;;;;;;0.26;66.84;98364.03;4914689;29;19923;-57
2023/01/27 10:11:17;;;;;;;;;;;;;;;0.34;66.62;98364.75;4912484;29;19923;-58
2023/01/27 10:13:51;;;;;;;;;;;;;;;0.32;66.80;98358.81;4911276;29;19927;-58
2023/01/27 10:16:26;;;;;;;;;;;;;;;0.39;67.39;98363.00;4907911;29;20357;-58
2023/01/27 10:19:00;;;;;;;;;;;;;;;0.43;67.17;98364.16;4915084;29;19923;-58
2023/01/27 10:21:29;;;;;;;;;;;;;;;0.63;66.79;98365.63;4895727;29;19923;-57
2023/01/27 10:23:59;;;;;;;;;;;;;;;0.68;66.76;98374.56;4912469;29;20276;-58
2023/01/27 10:26:31;;;;;;;;;;;;;;;0.51;66.47;98366.47;4908276;29;19922;-58
2023/01/27 10:29:02;;;;;;;;;;;;;;;0.68;66.70;98371.88;4908778;29;20368;-58
2023/01/27 10:31:31;;;;;;;;;;;;;;;0.67;66.01;98380.16;4898753;29;19923;-58
2023/01/27 10:34:02;;;;;;;;;;;;;;;0.71;66.09;98376.78;4911982;29;20373;-58
2023/01/27 10:36:33;;;;;;;;;;;;;;;0.52;65.68;98375.28;4912437;29;19979;-57
2023/01/27 10:39:11;;;;;;;;;;;;;;;0.51;66.42;98377.16;4906852;29;19924;-59
2023/01/27 10:41:43;;;;;;;;;;;;;;;0.55;66.95;98377.50;4909917;29;19923;-58
2023/01/27 10:44:16;;;;;;;;;;;;;;;0.44;66.33;98381.81;4908776;29;19935;-58
2023/01/27 10:46:46;;;;;;;;;;;;;;;0.50;66.08;98378.19;4916167;29;19923;-58
2023/01/27 10:49:39;;;;;;;;;;;;;;;0.57;66.80;98379.94;4915006;29;19946;-58
2023/01/27 10:52:09;;;;;;;;;;;;;;;0.77;66.49;98369.66;4914561;29;19928;-58
2023/01/27 10:54:38;;;;;;;;;;;;;;;0.68;66.29;98365.72;4896714;29;19930;-58
2023/01/27 10:57:08;;;;;;;;;;;;;;;0.96;66.48;98368.47;4913961;29;19923;-58
2023/01/27 10:59:38;;;;;;;;;;;;;;;1.12;66.04;98358.84;4906380;29;19927;-58
2023/01/27 11:02:09;;;;;;;;;;;;;;;1.28;65.28;98357.28;4917434;29;19923;-58
2023/01/27 11:04:38;;;;;;;;;;;;;;;1.27;64.78;98360.97;4889912;29;19946;-59
2023/01/27 11:07:07;;;;;;;;;;;;;;;1.02;64.97;98364.81;4909761;29;19927;-58
2023/01/27 11:10:01;;;;;;;;;;;;;;;1.04;64.78;98353.88;4917122;29;19929;-58
2023/01/27 11:12:31;;;;;;;;;;;;;;;1.07;64.43;98350.72;4916371;29;19923;-57
2023/01/27 11:15:00;;;;;;;;;;;;;;;0.89;65.40;98362.41;4917688;29;20376;-60
2023/01/27 11:17:30;;;;;;;;;;;;;;;1.08;65.00;98351.53;4907166;29;19923;-57
2023/01/27 11:19:59;;;;;;;;;;;;;;;0.90;64.90;98357.88;4916764;29;19923;-58
2023/01/27 11:22:29;;;;;;;;;;;;;;;0.93;65.78;98352.88;4912475;29;20253;-57
2023/01/27 11:24:59;;;;;;;;;;;;;;;0.96;65.53;98347.06;4913495;29;19951;-58
2023/01/27 11:27:30;;;;;;;;;;;;;;;0.79;64.76;98359.53;4897134;29;19930;-58
2023/01/27 11:30:01;;;;;;;;;;;;;;;0.72;65.50;98353.50;4915356;29;19923;-58
2023/01/27 11:32:38;;;;;;;;;;;;;;;0.68;65.76;98355.84;4914445;29;19938;-57
2023/01/27 11:35:09;;;;;;;;;;;;;;;0.54;65.84;98351.00;4914993;29;20364;-58
2023/01/27 11:37:39;;;;;;;;;;;;;;;0.53;66.32;98342.16;4918738;29;19923;-57
2023/01/27 11:40:13;;;;;;;;;;;;;;;0.64;66.17;98353.88;4913770;29;19930;-58
2023/01/27 11:42:42;;;;;;;;;;;;;;;0.34;66.12;98338.84;4904647;29;19938;-58
2023/01/27 11:45:14;;;;;;;;;;;;;;;0.49;66.59;98352.53;4900161;29;19923;-58
2023/01/27 11:47:42;;;;;;;;;;;;;;;0.47;66.26;98351.94;4916883;29;19923;-58
2023/01/27 11:50:13;;;;;;;;;;;;;;;0.51;66.59;98342.41;4914697;29;19927;-58
2023/01/27 11:52:42;;;;;;;;;;;;;;;0.61;66.88;98338.31;4913678;29;19923;-58
2023/01/27 11:55:15;;;;;;;;;;;;;;;0.61;66.22;98349.00;4913591;29;19930;-58
2023/01/27 11:57:44;;;;;;;;;;;;;;;0.69;66.15;98333.41;4913414;29;19923;-58
2023/01/27 12:03:13;;;;;;;;;;;;;;;0.60;66.15;98332.16;4914045;29;20021;-58
2023/01/27 12:05:42;;;;;;;;;;;;;;;0.76;65.95;98325.25;4916294;29;19971;-58
2023/01/27 12:08:11;;;;;;;;;;;;;;;0.77;65.02;98326.88;4917715;29;19923;-57
2023/01/27 12:10:41;;;;;;;;;;;;;;;0.73;65.07;98320.38;4916431;29;19927;-58
2023/01/27 12:13:16;;;;;;;;;;;;;;;0.74;65.71;98322.78;4922659;29;19923;-58
2023/01/27 12:15:48;;;;;;;;;;;;;;;0.89;64.73;98311.59;4923506;29;20275;-58
2023/01/27 12:18:17;;;;;;;;;;;;;;;0.85;65.70;98307.75;4900290;29;20060;-57
2023/01/27 12:20:45;;;;;;;;;;;;;;;0.95;65.15;98307.94;4912575;29;20413;-58
2023/01/27 12:23:19;;;;;;;;;;;;;;;1.15;65.06;98304.03;4918395;29;20017;-58
2023/01/27 12:25:49;;;;;;;;;;;;;;;1.04;64.53;98305.72;4919428;29;19936;-58
2023/01/27 12:28:20;;;;;;;;;;;;;;;1.01;64.89;98295.47;4923261;29;19947;-58
2023/01/27 12:30:50;;;;;;;;;;;;;;;1.10;64.35;98299.41;4913747;29;19928;-57
2023/01/27 12:33:21;;;;;;;;;;;;;;;0.97;64.31;98294.34;4907085;29;19929;-58
2023/01/27 12:36:15;;;;;;;;;;;;;;;0.93;65.13;98293.19;4917964;29;20403;-59
2023/01/27 12:38:49;;;;;;;;;;;;;;;0.81;64.61;98295.94;4919438;29;19935;-58
2023/01/27 12:41:20;;;;;;;;;;;;;;;0.80;65.62;98294.31;4907000;29;20354;-60
2023/01/27 12:43:53;;;;;;;;;;;;;;;0.83;65.35;98298.38;4916664;29;19923;-59
2023/01/27 12:46:24;;;;;;;;;;;;;;;0.79;65.04;98290.00;4916757;29;19971;-59
2023/01/27 12:52:17;;;;;;;;;;;;;;;0.71;65.96;98301.09;4916798;29;19930;-59
2023/01/27 12:54:45;;;;;;;;;;;;;;;0.77;65.72;98300.13;4910991;29;19935;-59
2023/01/27 12:57:14;;;;;;;;;;;;;;;0.67;65.30;98294.59;4913106;29;19931;-58
2023/01/27 12:59:45;;;;;;;;;;;;;;;0.72;65.57;98300.03;4913939;29;19923;-58
2023/01/27 13:02:17;;;;;;;;;;;;;;;0.73;65.39;98298.97;4925402;29;19938;-58
2023/01/27 13:04:45;;;;;;;;;;;;;;;0.68;65.84;98294.34;4916565;29;19957;-57
2023/01/27 13:10:06;;;;;;;;;;;;;;;0.73;65.26;98294.44;4910079;29;19950;-59
2023/01/27 13:12:37;;;;;;;;;;;;;;;0.67;65.42;98294.59;4916254;29;20416;-65
2023/01/27 13:15:06;;;;;;;;;;;;;;;0.79;65.54;98303.38;4915305;29;19923;-59
2023/01/27 13:17:39;;;;;;;;;;;;;;;0.87;64.73;98303.00;4914159;29;19978;-56
2023/01/27 13:20:14;;;;;;;;;;;;;;;0.79;65.01;98308.72;4897912;29;20203;-58
2023/01/27 13:22:43;;;;;;;;;;;;;;;0.96;64.63;98306.91;4893417;29;19992;-58
2023/01/27 13:25:14;;;;;;;;;;;;;;;1.08;64.79;98309.53;4908993;29;19930;-58
2023/01/27 13:27:42;;;;;;;;;;;;;;;1.10;64.52;98309.28;4913979;29;20403;-56
2023/01/27 13:30:13;;;;;;;;;;;;;;;1.09;63.85;98321.06;4897836;29;19972;-57
2023/01/27 13:32:46;;;;;;;;;;;;;;;1.12;64.32;98317.88;4914782;29;19949;-56
2023/01/27 13:35:19;;;;;;;;;;;;;;;1.20;63.77;98317.50;4910877;29;20029;-57
2023/01/27 13:38:14;;;;;;;;;;;;;;;1.24;63.47;98310.63;4915289;29;19950;-56
2023/01/27 13:40:43;;;;;;;;;;;;;;;1.27;63.61;98315.47;4913528;29;20354;-57
2023/01/27 13:43:12;;;;;;;;;;;;;;;1.16;63.29;98324.38;4915334;29;19957;-57
2023/01/27 13:45:41;;;;;;;;;;;;;;;0.93;63.50;98319.97;4918564;29;19937;-57
2023/01/27 13:48:12;;;;;;;;;;;;;;;0.74;63.69;98321.97;4919059;29;19953;-57
2023/01/27 13:51:06;;;;;;;;;;;;;;;0.82;63.88;98320.81;4916227;29;19940;-57
2023/01/27 13:53:34;;;;;;;;;;;;;;;0.73;64.04;98323.03;4911683;29;19934;-57
2023/01/27 13:56:05;;;;;;;;;;;;;;;0.84;63.81;98313.34;4908377;29;20044;-57
2023/01/27 14:01:31;;;;;;;;;;;;;;;0.77;63.97;98330.34;4906141;29;20011;-57
2023/01/27 14:04:17;;;;;;;;;;;;;;;0.81;63.74;98337.91;4913620;29;19930;-58